sensor_id;sensor_type;location;lat;lon;timestamp;temperature;humidity
69895;DHT22;57172;52.034;5.090;2023-05-28T00:00:51;16.00;67.40
69895;DHT22;57172;52.034;5.090;2023-05-28T00:03:18;15.90;67.50
69895;DHT22;57172;52.034;5.090;2023-05-28T00:05:47;15.90;67.70
69895;DHT22;57172;52.034;5.090;2023-05-28T00:08:14;15.80;67.70
69895;DHT22;57172;52.034;5.090;2023-05-28T00:10:42;15.80;67.90
69895;DHT22;57172;52.034;5.090;2023-05-28T00:13:09;15.80;67.90
69895;DHT22;57172;52.034;5.090;2023-05-28T00:15:36;15.70;67.90
69895;DHT22;57172;52.034;5.090;2023-05-28T00:18:04;15.70;67.90
69895;DHT22;57172;52.034;5.090;2023-05-28T00:20:32;15.70;67.90
69895;DHT22;57172;52.034;5.090;2023-05-28T00:22:59;15.60;68.00
69895;DHT22;57172;52.034;5.090;2023-05-28T00:25:26;15.60;68.10
69895;DHT22;57172;52.034;5.090;2023-05-28T00:27:53;15.60;68.20
69895;DHT22;57172;52.034;5.090;2023-05-28T00:30:20;15.60;68.30
69895;DHT22;57172;52.034;5.090;2023-05-28T00:32:49;15.60;68.40
69895;DHT22;57172;52.034;5.090;2023-05-28T00:35:16;15.50;68.40
69895;DHT22;57172;52.034;5.090;2023-05-28T00:37:43;15.50;68.50
69895;DHT22;57172;52.034;5.090;2023-05-28T00:40:10;15.40;68.50
69895;DHT22;57172;52.034;5.090;2023-05-28T00:42:38;15.40;68.60
69895;DHT22;57172;52.034;5.090;2023-05-28T00:45:05;15.30;68.70
69895;DHT22;57172;52.034;5.090;2023-05-28T00:47:32;15.30;68.90
69895;DHT22;57172;52.034;5.090;2023-05-28T00:50:00;15.20;68.90
69895;DHT22;57172;52.034;5.090;2023-05-28T00:52:27;15.20;69.10
69895;DHT22;57172;52.034;5.090;2023-05-28T00:54:54;15.10;69.10
69895;DHT22;57172;52.034;5.090;2023-05-28T00:57:23;15.10;69.10
69895;DHT22;57172;52.034;5.090;2023-05-28T00:59:50;15.10;69.20
69895;DHT22;57172;52.034;5.090;2023-05-28T01:02:18;15.10;69.30
69895;DHT22;57172;52.034;5.090;2023-05-28T01:04:45;15.00;69.40
69895;DHT22;57172;52.034;5.090;2023-05-28T01:07:12;15.00;69.30
69895;DHT22;57172;52.034;5.090;2023-05-28T01:09:39;14.90;69.60
69895;DHT22;57172;52.034;5.090;2023-05-28T01:12:08;14.80;69.50
69895;DHT22;57172;52.034;5.090;2023-05-28T01:14:35;14.80;69.60
69895;DHT22;57172;52.034;5.090;2023-05-28T01:17:04;14.80;69.70
69895;DHT22;57172;52.034;5.090;2023-05-28T01:19:33;14.70;69.70
69895;DHT22;57172;52.034;5.090;2023-05-28T01:22:05;14.70;69.90
69895;DHT22;57172;52.034;5.090;2023-05-28T01:24:34;14.70;69.80
69895;DHT22;57172;52.034;5.090;2023-05-28T01:27:01;14.70;69.80
69895;DHT22;57172;52.034;5.090;2023-05-28T01:29:28;14.70;69.80
69895;DHT22;57172;52.034;5.090;2023-05-28T01:31:56;14.60;70.00
69895;DHT22;57172;52.034;5.090;2023-05-28T01:34:23;14.60;69.90
69895;DHT22;57172;52.034;5.090;2023-05-28T01:37:03;14.50;69.90
69895;DHT22;57172;52.034;5.090;2023-05-28T01:39:37;14.50;70.20
69895;DHT22;57172;52.034;5.090;2023-05-28T01:42:07;14.50;70.10
69895;DHT22;57172;52.034;5.090;2023-05-28T01:44:34;14.50;70.00
69895;DHT22;57172;52.034;5.090;2023-05-28T01:47:02;14.50;70.10
69895;DHT22;57172;52.034;5.090;2023-05-28T01:49:29;14.40;70.20
69895;DHT22;57172;52.034;5.090;2023-05-28T01:51:56;14.40;70.20
69895;DHT22;57172;52.034;5.090;2023-05-28T01:54:24;14.40;70.20
69895;DHT22;57172;52.034;5.090;2023-05-28T01:56:51;14.40;70.30
69895;DHT22;57172;52.034;5.090;2023-05-28T01:59:18;14.40;70.20
69895;DHT22;57172;52.034;5.090;2023-05-28T02:01:45;14.30;70.30
69895;DHT22;57172;52.034;5.090;2023-05-28T02:04:12;14.30;70.30
69895;DHT22;57172;52.034;5.090;2023-05-28T02:06:39;14.30;70.50
69895;DHT22;57172;52.034;5.090;2023-05-28T02:09:10;14.30;70.50
69895;DHT22;57172;52.034;5.090;2023-05-28T02:11:41;14.20;70.60
69895;DHT22;57172;52.034;5.090;2023-05-28T02:14:08;14.20;70.70
69895;DHT22;57172;52.034;5.090;2023-05-28T02:16:36;14.20;70.80
69895;DHT22;57172;52.034;5.090;2023-05-28T02:19:04;14.20;70.90
69895;DHT22;57172;52.034;5.090;2023-05-28T02:21:31;14.20;71.10
69895;DHT22;57172;52.034;5.090;2023-05-28T02:23:58;14.20;71.20
69895;DHT22;57172;52.034;5.090;2023-05-28T02:26:25;14.20;71.40
69895;DHT22;57172;52.034;5.090;2023-05-28T02:28:52;14.20;71.40
69895;DHT22;57172;52.034;5.090;2023-05-28T02:31:19;14.20;71.30
69895;DHT22;57172;52.034;5.090;2023-05-28T02:33:46;14.20;71.40
69895;DHT22;57172;52.034;5.090;2023-05-28T02:36:13;14.20;71.40
69895;DHT22;57172;52.034;5.090;2023-05-28T02:38:41;14.20;71.40
69895;DHT22;57172;52.034;5.090;2023-05-28T02:41:09;14.20;71.30
69895;DHT22;57172;52.034;5.090;2023-05-28T02:43:37;14.20;71.40
69895;DHT22;57172;52.034;5.090;2023-05-28T02:46:07;14.10;71.60
69895;DHT22;57172;52.034;5.090;2023-05-28T02:48:34;14.20;71.70
69895;DHT22;57172;52.034;5.090;2023-05-28T02:51:02;14.10;71.70
69895;DHT22;57172;52.034;5.090;2023-05-28T02:53:49;14.10;71.70
69895;DHT22;57172;52.034;5.090;2023-05-28T02:56:16;14.10;71.80
69895;DHT22;57172;52.034;5.090;2023-05-28T02:58:44;14.10;71.90
69895;DHT22;57172;52.034;5.090;2023-05-28T03:01:13;14.10;71.80
69895;DHT22;57172;52.034;5.090;2023-05-28T03:03:40;14.10;71.90
69895;DHT22;57172;52.034;5.090;2023-05-28T03:06:08;14.00;71.80
69895;DHT22;57172;52.034;5.090;2023-05-28T03:08:43;14.00;71.90
69895;DHT22;57172;52.034;5.090;2023-05-28T03:11:10;14.00;72.00
69895;DHT22;57172;52.034;5.090;2023-05-28T03:13:37;13.90;72.00
69895;DHT22;57172;52.034;5.090;2023-05-28T03:16:05;13.90;72.00
69895;DHT22;57172;52.034;5.090;2023-05-28T03:18:34;13.90;71.90
69895;DHT22;57172;52.034;5.090;2023-05-28T03:21:02;13.90;72.00
69895;DHT22;57172;52.034;5.090;2023-05-28T03:23:29;13.90;72.10
69895;DHT22;57172;52.034;5.090;2023-05-28T03:26:13;13.90;72.00
69895;DHT22;57172;52.034;5.090;2023-05-28T03:28:41;13.80;72.10
69895;DHT22;57172;52.034;5.090;2023-05-28T03:31:28;13.80;72.20
69895;DHT22;57172;52.034;5.090;2023-05-28T03:33:58;13.70;72.30
69895;DHT22;57172;52.034;5.090;2023-05-28T03:36:25;13.70;72.30
69895;DHT22;57172;52.034;5.090;2023-05-28T03:38:52;13.70;72.40
69895;DHT22;57172;52.034;5.090;2023-05-28T03:41:21;13.70;72.40
69895;DHT22;57172;52.034;5.090;2023-05-28T03:43:49;13.60;72.30
69895;DHT22;57172;52.034;5.090;2023-05-28T03:46:16;13.60;72.40
69895;DHT22;57172;52.034;5.090;2023-05-28T03:48:43;13.60;72.50
69895;DHT22;57172;52.034;5.090;2023-05-28T03:51:10;13.60;72.60
69895;DHT22;57172;52.034;5.090;2023-05-28T03:53:37;13.50;72.60
69895;DHT22;57172;52.034;5.090;2023-05-28T03:56:04;13.50;72.60
69895;DHT22;57172;52.034;5.090;2023-05-28T03:58:32;13.50;72.80
69895;DHT22;57172;52.034;5.090;2023-05-28T04:01:00;13.50;72.80
69895;DHT22;57172;52.034;5.090;2023-05-28T04:03:27;13.50;73.00
69895;DHT22;57172;52.034;5.090;2023-05-28T04:05:54;13.50;73.20
69895;DHT22;57172;52.034;5.090;2023-05-28T04:08:21;13.50;73.10
69895;DHT22;57172;52.034;5.090;2023-05-28T04:10:49;13.50;73.20
69895;DHT22;57172;52.034;5.090;2023-05-28T04:13:17;13.60;73.30
69895;DHT22;57172;52.034;5.090;2023-05-28T04:15:44;13.60;73.20
69895;DHT22;57172;52.034;5.090;2023-05-28T04:18:11;13.60;73.20
69895;DHT22;57172;52.034;5.090;2023-05-28T04:20:38;13.60;73.30
69895;DHT22;57172;52.034;5.090;2023-05-28T04:23:05;13.60;73.20
69895;DHT22;57172;52.034;5.090;2023-05-28T04:25:32;13.70;73.30
69895;DHT22;57172;52.034;5.090;2023-05-28T04:27:59;13.70;73.30
69895;DHT22;57172;52.034;5.090;2023-05-28T04:30:29;13.70;73.20
69895;DHT22;57172;52.034;5.090;2023-05-28T04:32:57;13.70;73.10
69895;DHT22;57172;52.034;5.090;2023-05-28T04:35:25;13.70;73.20
69895;DHT22;57172;52.034;5.090;2023-05-28T04:37:53;13.80;73.10
69895;DHT22;57172;52.034;5.090;2023-05-28T04:40:19;13.80;73.00
69895;DHT22;57172;52.034;5.090;2023-05-28T04:42:48;13.80;73.10
69895;DHT22;57172;52.034;5.090;2023-05-28T04:45:15;13.90;73.00
69895;DHT22;57172;52.034;5.090;2023-05-28T04:47:46;13.90;72.80
69895;DHT22;57172;52.034;5.090;2023-05-28T04:50:14;13.90;72.70
69895;DHT22;57172;52.034;5.090;2023-05-28T04:52:41;14.00;72.50
69895;DHT22;57172;52.034;5.090;2023-05-28T04:55:08;14.00;72.40
69895;DHT22;57172;52.034;5.090;2023-05-28T04:57:35;14.00;72.30
69895;DHT22;57172;52.034;5.090;2023-05-28T05:00:02;14.00;72.10
69895;DHT22;57172;52.034;5.090;2023-05-28T05:02:31;14.00;71.90
69895;DHT22;57172;52.034;5.090;2023-05-28T05:04:58;14.00;71.90
69895;DHT22;57172;52.034;5.090;2023-05-28T05:07:27;14.00;72.00
69895;DHT22;57172;52.034;5.090;2023-05-28T05:09:55;14.00;71.90
69895;DHT22;57172;52.034;5.090;2023-05-28T05:12:22;14.10;71.90
69895;DHT22;57172;52.034;5.090;2023-05-28T05:14:49;14.10;71.90
69895;DHT22;57172;52.034;5.090;2023-05-28T05:17:16;14.00;71.80
69895;DHT22;57172;52.034;5.090;2023-05-28T05:19:44;14.10;71.90
69895;DHT22;57172;52.034;5.090;2023-05-28T05:22:11;14.10;71.80
69895;DHT22;57172;52.034;5.090;2023-05-28T05:24:40;14.10;71.80
69895;DHT22;57172;52.034;5.090;2023-05-28T05:27:07;14.10;71.80
69895;DHT22;57172;52.034;5.090;2023-05-28T05:29:34;14.10;71.80
69895;DHT22;57172;52.034;5.090;2023-05-28T05:32:01;14.10;71.70
69895;DHT22;57172;52.034;5.090;2023-05-28T05:34:28;14.10;71.80
69895;DHT22;57172;52.034;5.090;2023-05-28T05:37:28;14.20;71.70
69895;DHT22;57172;52.034;5.090;2023-05-28T05:40:21;14.20;71.70
69895;DHT22;57172;52.034;5.090;2023-05-28T05:42:59;14.20;71.60
69895;DHT22;57172;52.034;5.090;2023-05-28T05:45:26;14.30;71.60
69895;DHT22;57172;52.034;5.090;2023-05-28T05:47:54;14.30;71.60
69895;DHT22;57172;52.034;5.090;2023-05-28T05:50:21;14.30;71.60
69895;DHT22;57172;52.034;5.090;2023-05-28T05:52:48;14.40;71.50
69895;DHT22;57172;52.034;5.090;2023-05-28T05:55:15;14.40;71.40
69895;DHT22;57172;52.034;5.090;2023-05-28T05:57:44;14.50;71.40
69895;DHT22;57172;52.034;5.090;2023-05-28T06:00:12;14.60;71.30
69895;DHT22;57172;52.034;5.090;2023-05-28T06:02:40;14.60;71.20
69895;DHT22;57172;52.034;5.090;2023-05-28T06:05:43;14.80;71.10
69895;DHT22;57172;52.034;5.090;2023-05-28T06:08:36;14.80;70.90
69895;DHT22;57172;52.034;5.090;2023-05-28T06:11:22;14.90;70.80
69895;DHT22;57172;52.034;5.090;2023-05-28T06:13:50;15.00;70.50
69895;DHT22;57172;52.034;5.090;2023-05-28T06:16:18;15.10;70.40
69895;DHT22;57172;52.034;5.090;2023-05-28T06:18:45;15.10;70.30
69895;DHT22;57172;52.034;5.090;2023-05-28T06:21:12;15.20;70.10
69895;DHT22;57172;52.034;5.090;2023-05-28T06:23:40;15.20;70.10
69895;DHT22;57172;52.034;5.090;2023-05-28T06:26:07;15.30;69.90
69895;DHT22;57172;52.034;5.090;2023-05-28T06:28:33;15.40;69.90
69895;DHT22;57172;52.034;5.090;2023-05-28T06:31:00;15.50;69.60
69895;DHT22;57172;52.034;5.090;2023-05-28T06:33:28;15.60;69.30
69895;DHT22;57172;52.034;5.090;2023-05-28T06:35:56;15.60;69.30
69895;DHT22;57172;52.034;5.090;2023-05-28T06:38:23;15.70;69.20
69895;DHT22;57172;52.034;5.090;2023-05-28T06:40:50;15.90;68.70
69895;DHT22;57172;52.034;5.090;2023-05-28T06:43:19;15.90;68.30
69895;DHT22;57172;52.034;5.090;2023-05-28T06:46:00;15.90;68.10
69895;DHT22;57172;52.034;5.090;2023-05-28T06:48:27;16.00;68.10
69895;DHT22;57172;52.034;5.090;2023-05-28T06:50:54;16.00;68.00
69895;DHT22;57172;52.034;5.090;2023-05-28T06:53:21;16.10;67.90
69895;DHT22;57172;52.034;5.090;2023-05-28T06:55:48;16.10;67.80
69895;DHT22;57172;52.034;5.090;2023-05-28T06:58:33;16.20;67.70
69895;DHT22;57172;52.034;5.090;2023-05-28T07:01:03;16.30;67.60
69895;DHT22;57172;52.034;5.090;2023-05-28T07:04:03;16.40;67.50
69895;DHT22;57172;52.034;5.090;2023-05-28T07:06:50;16.60;66.90
69895;DHT22;57172;52.034;5.090;2023-05-28T07:09:26;16.70;67.00
69895;DHT22;57172;52.034;5.090;2023-05-28T07:11:53;16.80;66.60
69895;DHT22;57172;52.034;5.090;2023-05-28T07:14:20;16.90;66.50
69895;DHT22;57172;52.034;5.090;2023-05-28T07:16:47;17.10;66.30
69895;DHT22;57172;52.034;5.090;2023-05-28T07:19:14;17.30;65.80
69895;DHT22;57172;52.034;5.090;2023-05-28T07:21:42;17.40;65.30
69895;DHT22;57172;52.034;5.090;2023-05-28T07:24:10;17.50;64.80
69895;DHT22;57172;52.034;5.090;2023-05-28T07:26:37;17.60;64.70
69895;DHT22;57172;52.034;5.090;2023-05-28T07:29:04;17.80;64.10
69895;DHT22;57172;52.034;5.090;2023-05-28T07:31:31;17.80;63.70
69895;DHT22;57172;52.034;5.090;2023-05-28T07:33:59;17.90;63.90
69895;DHT22;57172;52.034;5.090;2023-05-28T07:36:31;18.00;64.10
69895;DHT22;57172;52.034;5.090;2023-05-28T07:38:58;18.20;63.70
69895;DHT22;57172;52.034;5.090;2023-05-28T07:41:25;18.40;63.60
69895;DHT22;57172;52.034;5.090;2023-05-28T07:44:09;18.60;63.00
69895;DHT22;57172;52.034;5.090;2023-05-28T07:46:37;18.80;61.80
69895;DHT22;57172;52.034;5.090;2023-05-28T07:49:09;19.00;61.30
69895;DHT22;57172;52.034;5.090;2023-05-28T07:51:45;19.10;61.40
69895;DHT22;57172;52.034;5.090;2023-05-28T07:54:24;19.30;60.50
69895;DHT22;57172;52.034;5.090;2023-05-28T07:56:52;19.30;59.90
69895;DHT22;57172;52.034;5.090;2023-05-28T07:59:25;19.40;59.70
69895;DHT22;57172;52.034;5.090;2023-05-28T08:01:54;19.60;59.20
69895;DHT22;57172;52.034;5.090;2023-05-28T08:04:21;19.60;59.30
69895;DHT22;57172;52.034;5.090;2023-05-28T08:06:49;19.80;58.90
69895;DHT22;57172;52.034;5.090;2023-05-28T08:09:18;19.90;58.50
69895;DHT22;57172;52.034;5.090;2023-05-28T08:11:49;20.00;58.30
69895;DHT22;57172;52.034;5.090;2023-05-28T08:14:18;20.10;57.90
69895;DHT22;57172;52.034;5.090;2023-05-28T08:16:47;20.30;57.60
69895;DHT22;57172;52.034;5.090;2023-05-28T08:19:31;20.40;57.30
69895;DHT22;57172;52.034;5.090;2023-05-28T08:22:01;20.50;56.80
69895;DHT22;57172;52.034;5.090;2023-05-28T08:24:28;20.70;56.30
69895;DHT22;57172;52.034;5.090;2023-05-28T08:26:55;20.90;56.00
69895;DHT22;57172;52.034;5.090;2023-05-28T08:29:23;21.10;55.60
69895;DHT22;57172;52.034;5.090;2023-05-28T08:31:57;21.30;55.30
69895;DHT22;57172;52.034;5.090;2023-05-28T08:34:32;21.60;55.00
69895;DHT22;57172;52.034;5.090;2023-05-28T08:37:03;21.90;54.80
69895;DHT22;57172;52.034;5.090;2023-05-28T08:39:38;22.20;53.60
69895;DHT22;57172;52.034;5.090;2023-05-28T08:42:06;22.70;53.80
69895;DHT22;57172;52.034;5.090;2023-05-28T08:44:34;23.30;53.00
69895;DHT22;57172;52.034;5.090;2023-05-28T08:47:01;23.90;51.10
69895;DHT22;57172;52.034;5.090;2023-05-28T08:49:53;24.20;49.10
69895;DHT22;57172;52.034;5.090;2023-05-28T08:52:26;24.50;48.60
69895;DHT22;57172;52.034;5.090;2023-05-28T08:54:55;25.10;49.10
69895;DHT22;57172;52.034;5.090;2023-05-28T08:57:22;25.70;48.60
69895;DHT22;57172;52.034;5.090;2023-05-28T08:59:55;26.20;46.30
69895;DHT22;57172;52.034;5.090;2023-05-28T09:02:24;26.50;45.60
69895;DHT22;57172;52.034;5.090;2023-05-28T09:04:52;26.70;44.60
69895;DHT22;57172;52.034;5.090;2023-05-28T09:07:20;26.70;43.20
69895;DHT22;57172;52.034;5.090;2023-05-28T09:09:53;26.80;43.00
69895;DHT22;57172;52.034;5.090;2023-05-28T09:12:24;26.80;42.30
69895;DHT22;57172;52.034;5.090;2023-05-28T09:14:58;26.90;41.70
69895;DHT22;57172;52.034;5.090;2023-05-28T09:17:52;27.00;42.00
69895;DHT22;57172;52.034;5.090;2023-05-28T09:20:23;27.20;41.60
69895;DHT22;57172;52.034;5.090;2023-05-28T09:23:00;27.30;41.80
69895;DHT22;57172;52.034;5.090;2023-05-28T09:26:09;27.70;41.60
69895;DHT22;57172;52.034;5.090;2023-05-28T09:28:44;28.00;40.20
69895;DHT22;57172;52.034;5.090;2023-05-28T09:31:11;28.00;40.50
69895;DHT22;57172;52.034;5.090;2023-05-28T09:33:44;28.10;39.80
69895;DHT22;57172;52.034;5.090;2023-05-28T09:36:11;28.10;39.70
69895;DHT22;57172;52.034;5.090;2023-05-28T09:38:42;28.10;39.60
69895;DHT22;57172;52.034;5.090;2023-05-28T09:41:26;28.00;39.50
69895;DHT22;57172;52.034;5.090;2023-05-28T09:44:02;28.10;39.70
69895;DHT22;57172;52.034;5.090;2023-05-28T09:46:30;28.10;39.60
69895;DHT22;57172;52.034;5.090;2023-05-28T09:48:58;28.20;40.20
69895;DHT22;57172;52.034;5.090;2023-05-28T09:51:27;28.40;39.40
69895;DHT22;57172;52.034;5.090;2023-05-28T09:54:02;28.50;39.70
69895;DHT22;57172;52.034;5.090;2023-05-28T09:56:31;28.80;39.10
69895;DHT22;57172;52.034;5.090;2023-05-28T09:59:03;28.90;38.70
69895;DHT22;57172;52.034;5.090;2023-05-28T10:01:45;29.00;38.20
69895;DHT22;57172;52.034;5.090;2023-05-28T10:04:21;29.00;38.10
69895;DHT22;57172;52.034;5.090;2023-05-28T10:06:48;29.10;37.50
69895;DHT22;57172;52.034;5.090;2023-05-28T10:09:18;29.20;37.90
69895;DHT22;57172;52.034;5.090;2023-05-28T10:12:03;29.60;37.80
69895;DHT22;57172;52.034;5.090;2023-05-28T10:14:31;30.00;36.50
69895;DHT22;57172;52.034;5.090;2023-05-28T10:16:59;30.10;36.90
69895;DHT22;57172;52.034;5.090;2023-05-28T10:19:29;30.30;36.20
69895;DHT22;57172;52.034;5.090;2023-05-28T10:21:56;30.30;35.80
69895;DHT22;57172;52.034;5.090;2023-05-28T10:24:24;30.50;35.90
69895;DHT22;57172;52.034;5.090;2023-05-28T10:26:53;30.60;35.60
69895;DHT22;57172;52.034;5.090;2023-05-28T10:29:20;30.70;34.80
69895;DHT22;57172;52.034;5.090;2023-05-28T10:32:01;30.80;35.20
69895;DHT22;57172;52.034;5.090;2023-05-28T10:34:31;31.00;35.00
69895;DHT22;57172;52.034;5.090;2023-05-28T10:37:03;31.20;34.70
69895;DHT22;57172;52.034;5.090;2023-05-28T10:39:44;31.60;34.10
69895;DHT22;57172;52.034;5.090;2023-05-28T10:42:18;31.90;34.20
69895;DHT22;57172;52.034;5.090;2023-05-28T10:47:40;32.40;33.10
69895;DHT22;57172;52.034;5.090;2023-05-28T10:52:39;32.90;32.90
69895;DHT22;57172;52.034;5.090;2023-05-28T10:55:08;33.10;32.80
69895;DHT22;57172;52.034;5.090;2023-05-28T10:57:40;33.50;32.80
69895;DHT22;57172;52.034;5.090;2023-05-28T11:00:10;34.00;31.60
69895;DHT22;57172;52.034;5.090;2023-05-28T11:02:43;34.10;31.60
69895;DHT22;57172;52.034;5.090;2023-05-28T11:05:11;34.00;31.10
69895;DHT22;57172;52.034;5.090;2023-05-28T11:07:40;33.70;31.10
69895;DHT22;57172;52.034;5.090;2023-05-28T11:10:12;33.60;31.30
69895;DHT22;57172;52.034;5.090;2023-05-28T11:12:42;33.60;31.40
69895;DHT22;57172;52.034;5.090;2023-05-28T11:15:10;33.40;31.50
69895;DHT22;57172;52.034;5.090;2023-05-28T11:17:38;33.30;31.30
69895;DHT22;57172;52.034;5.090;2023-05-28T11:20:18;33.20;31.70
69895;DHT22;57172;52.034;5.090;2023-05-28T11:22:45;33.20;31.30
69895;DHT22;57172;52.034;5.090;2023-05-28T11:25:12;32.90;30.90
69895;DHT22;57172;52.034;5.090;2023-05-28T11:27:39;32.50;30.80
69895;DHT22;57172;52.034;5.090;2023-05-28T11:30:12;32.10;31.50
69895;DHT22;57172;52.034;5.090;2023-05-28T11:32:40;32.20;32.10
69895;DHT22;57172;52.034;5.090;2023-05-28T11:35:14;32.20;31.50
69895;DHT22;57172;52.034;5.090;2023-05-28T11:37:43;32.20;31.70
69895;DHT22;57172;52.034;5.090;2023-05-28T11:40:12;32.20;32.00
69895;DHT22;57172;52.034;5.090;2023-05-28T11:42:42;32.30;32.40
69895;DHT22;57172;52.034;5.090;2023-05-28T11:45:11;32.40;32.50
69895;DHT22;57172;52.034;5.090;2023-05-28T11:47:39;32.50;32.80
69895;DHT22;57172;52.034;5.090;2023-05-28T11:50:07;32.80;32.90
69895;DHT22;57172;52.034;5.090;2023-05-28T11:52:34;33.20;32.40
69895;DHT22;57172;52.034;5.090;2023-05-28T11:55:02;33.70;32.20
69895;DHT22;57172;52.034;5.090;2023-05-28T11:57:32;34.00;32.00
69895;DHT22;57172;52.034;5.090;2023-05-28T12:00:04;34.10;31.50
69895;DHT22;57172;52.034;5.090;2023-05-28T12:02:49;34.20;31.70
69895;DHT22;57172;52.034;5.090;2023-05-28T12:05:17;34.30;31.70
69895;DHT22;57172;52.034;5.090;2023-05-28T12:07:49;34.70;31.60
69895;DHT22;57172;52.034;5.090;2023-05-28T12:10:18;35.00;30.50
69895;DHT22;57172;52.034;5.090;2023-05-28T12:12:51;35.30;30.30
69895;DHT22;57172;52.034;5.090;2023-05-28T12:15:24;35.50;29.70
69895;DHT22;57172;52.034;5.090;2023-05-28T12:17:53;35.50;29.60
69895;DHT22;57172;52.034;5.090;2023-05-28T12:25:50;34.90;30.10
69895;DHT22;57172;52.034;5.090;2023-05-28T12:28:21;34.80;29.70
69895;DHT22;57172;52.034;5.090;2023-05-28T12:30:51;34.50;30.00
69895;DHT22;57172;52.034;5.090;2023-05-28T12:33:20;34.50;30.40
69895;DHT22;57172;52.034;5.090;2023-05-28T12:35:48;34.70;30.30
69895;DHT22;57172;52.034;5.090;2023-05-28T12:38:18;35.10;30.30
69895;DHT22;57172;52.034;5.090;2023-05-28T12:40:45;35.50;29.70
69895;DHT22;57172;52.034;5.090;2023-05-28T12:43:12;35.90;29.60
69895;DHT22;57172;52.034;5.090;2023-05-28T12:45:39;36.20;29.00
69895;DHT22;57172;52.034;5.090;2023-05-28T12:48:06;36.40;28.80
69895;DHT22;57172;52.034;5.090;2023-05-28T12:50:35;36.30;29.10
69895;DHT22;57172;52.034;5.090;2023-05-28T12:53:02;36.20;28.80
69895;DHT22;57172;52.034;5.090;2023-05-28T12:55:32;35.90;28.80
69895;DHT22;57172;52.034;5.090;2023-05-28T12:57:59;35.60;29.10
69895;DHT22;57172;52.034;5.090;2023-05-28T13:00:26;35.40;29.50
69895;DHT22;57172;52.034;5.090;2023-05-28T13:02:53;35.30;29.30
69895;DHT22;57172;52.034;5.090;2023-05-28T13:05:20;35.20;29.10
69895;DHT22;57172;52.034;5.090;2023-05-28T13:07:47;35.00;29.00
69895;DHT22;57172;52.034;5.090;2023-05-28T13:10:14;34.60;29.10
69895;DHT22;57172;52.034;5.090;2023-05-28T13:12:41;34.00;29.90
69895;DHT22;57172;52.034;5.090;2023-05-28T13:15:08;33.40;30.10
69895;DHT22;57172;52.034;5.090;2023-05-28T13:17:35;33.00;30.60
69895;DHT22;57172;52.034;5.090;2023-05-28T13:20:02;32.70;31.00
69895;DHT22;57172;52.034;5.090;2023-05-28T13:22:34;32.60;30.80
69895;DHT22;57172;52.034;5.090;2023-05-28T13:25:04;32.40;30.60
69895;DHT22;57172;52.034;5.090;2023-05-28T13:27:31;32.20;30.90
69895;DHT22;57172;52.034;5.090;2023-05-28T13:29:58;31.90;30.90
69895;DHT22;57172;52.034;5.090;2023-05-28T13:32:26;31.60;31.10
69895;DHT22;57172;52.034;5.090;2023-05-28T13:34:53;31.30;31.30
69895;DHT22;57172;52.034;5.090;2023-05-28T13:37:20;30.90;31.30
69895;DHT22;57172;52.034;5.090;2023-05-28T13:39:47;30.40;31.80
69895;DHT22;57172;52.034;5.090;2023-05-28T13:42:15;30.10;32.20
69895;DHT22;57172;52.034;5.090;2023-05-28T13:44:47;30.00;32.70
69895;DHT22;57172;52.034;5.090;2023-05-28T13:47:15;30.00;32.70
69895;DHT22;57172;52.034;5.090;2023-05-28T13:49:43;30.20;33.30
69895;DHT22;57172;52.034;5.090;2023-05-28T13:52:10;30.40;32.50
69895;DHT22;57172;52.034;5.090;2023-05-28T13:54:37;30.50;32.30
69895;DHT22;57172;52.034;5.090;2023-05-28T13:57:05;30.60;31.90
69895;DHT22;57172;52.034;5.090;2023-05-28T13:59:32;30.60;32.00
69895;DHT22;57172;52.034;5.090;2023-05-28T14:01:59;30.60;32.60
69895;DHT22;57172;52.034;5.090;2023-05-28T14:04:26;30.80;32.30
69895;DHT22;57172;52.034;5.090;2023-05-28T14:06:53;31.10;32.80
69895;DHT22;57172;52.034;5.090;2023-05-28T14:09:20;31.70;32.40
69895;DHT22;57172;52.034;5.090;2023-05-28T14:11:47;32.30;31.60
69895;DHT22;57172;52.034;5.090;2023-05-28T14:14:34;32.90;30.60
69895;DHT22;57172;52.034;5.090;2023-05-28T14:17:01;33.30;29.40
69895;DHT22;57172;52.034;5.090;2023-05-28T14:19:29;33.50;28.20
69895;DHT22;57172;52.034;5.090;2023-05-28T14:21:56;33.30;27.90
69895;DHT22;57172;52.034;5.090;2023-05-28T14:24:23;33.20;27.90
69895;DHT22;57172;52.034;5.090;2023-05-28T14:26:49;33.00;27.40
69895;DHT22;57172;52.034;5.090;2023-05-28T14:29:16;32.60;27.60
69895;DHT22;57172;52.034;5.090;2023-05-28T14:31:43;32.30;27.70
69895;DHT22;57172;52.034;5.090;2023-05-28T14:34:11;32.00;27.90
69895;DHT22;57172;52.034;5.090;2023-05-28T14:36:37;31.60;28.00
69895;DHT22;57172;52.034;5.090;2023-05-28T14:39:04;31.30;28.40
69895;DHT22;57172;52.034;5.090;2023-05-28T14:41:31;31.10;28.60
69895;DHT22;57172;52.034;5.090;2023-05-28T14:43:58;31.00;29.30
69895;DHT22;57172;52.034;5.090;2023-05-28T14:46:25;31.10;29.10
69895;DHT22;57172;52.034;5.090;2023-05-28T14:48:52;31.10;29.10
69895;DHT22;57172;52.034;5.090;2023-05-28T14:51:19;31.10;29.00
69895;DHT22;57172;52.034;5.090;2023-05-28T14:53:46;31.00;28.70
69895;DHT22;57172;52.034;5.090;2023-05-28T14:56:13;30.70;29.00
69895;DHT22;57172;52.034;5.090;2023-05-28T14:58:40;30.60;29.50
69895;DHT22;57172;52.034;5.090;2023-05-28T15:01:07;30.60;29.70
69895;DHT22;57172;52.034;5.090;2023-05-28T15:03:34;30.60;29.80
69895;DHT22;57172;52.034;5.090;2023-05-28T15:06:01;30.70;30.10
69895;DHT22;57172;52.034;5.090;2023-05-28T15:08:28;30.80;30.30
69895;DHT22;57172;52.034;5.090;2023-05-28T15:10:55;30.90;30.00
69895;DHT22;57172;52.034;5.090;2023-05-28T15:13:23;30.70;30.10
69895;DHT22;57172;52.034;5.090;2023-05-28T15:15:50;30.60;30.40
69895;DHT22;57172;52.034;5.090;2023-05-28T15:18:17;30.50;30.60
69895;DHT22;57172;52.034;5.090;2023-05-28T15:20:44;30.40;31.30
69895;DHT22;57172;52.034;5.090;2023-05-28T15:23:11;30.40;31.50
69895;DHT22;57172;52.034;5.090;2023-05-28T15:25:38;30.40;31.70
69895;DHT22;57172;52.034;5.090;2023-05-28T15:28:06;30.30;31.90
69895;DHT22;57172;52.034;5.090;2023-05-28T15:30:34;30.20;32.00
69895;DHT22;57172;52.034;5.090;2023-05-28T15:33:02;30.10;32.60
69895;DHT22;57172;52.034;5.090;2023-05-28T15:35:30;30.00;32.80
69895;DHT22;57172;52.034;5.090;2023-05-28T15:37:57;29.90;33.00
69895;DHT22;57172;52.034;5.090;2023-05-28T15:40:24;29.80;33.40
69895;DHT22;57172;52.034;5.090;2023-05-28T15:42:53;29.70;33.50
69895;DHT22;57172;52.034;5.090;2023-05-28T15:45:23;29.50;33.70
69895;DHT22;57172;52.034;5.090;2023-05-28T15:47:51;29.30;33.40
69895;DHT22;57172;52.034;5.090;2023-05-28T15:50:18;28.90;34.00
69895;DHT22;57172;52.034;5.090;2023-05-28T15:52:45;28.60;34.20
69895;DHT22;57172;52.034;5.090;2023-05-28T15:55:12;28.40;34.70